< < Back
Terminal Aerodrome Forecast


Current Version              Previous Versions:   1  2  3  4  5  6  7  8  9  

Terminal Aerodrome Forecast

714
FTUS44 KBMX 230500
TAFANB
TAF
KANB 230538Z 2306/2406 VRB03KT 2SM BR BKN005
     FM231000 34004KT 4SM BR SKC
     FM231200 02006KT P6SM SKC=



Latest METAR

274
SAUS70 KWBC 231100 RRC
MTRANB
METAR KANB 231053Z AUTO 03006KT 10SM CLR 16/11 A2994 RMK AO2 SLP135
T01560106


USA.gov is the U.S. government's official web portal to all federal, state and local government web resources and services.